Tuesday, May 31, 2016
10:07 UTC
  |  Log In   |  Register Free
Airport Search:

Northeast Philadelphia Airport
(KPNE)

FAA data valid effective Mar 31 2016 - May 26 2016 (unless otherwise noted).

 
 
 
 
 
 
 
 
 
 
 
 
 
 
Current Aviation Weather for KPNE

Weather Summary


The most recent METAR observation for PNE was updated at: 12:54 UTC
METAR for KPNE is not available. Closest METAR is for KVAY
KPNE  (most recent observation was updatred at 31:09 UTC)
310954Z AUTO 00000KT 10SM OVC017 22/19 A2996 RMK AO2 SLP142 T02220194 TSNO

KVAY  (11.3 nm NW)   (most recent observation was updated at 31:09 UTC)
310954Z AUTO 00000KT 9SM OVC020 21/19 A2994 RMK AO2 SLP139 T02060194 TSNO

KLOM  (12.2 nm SE)   (most recent observation was updated at 31:09 UTC)
310955Z AUTO 00000KT 5SM BKN050 18/18 A2995 RMK AO1

TAF for KPNE is not available.
KPNE
310527Z 3106/0106 VRB02KT P6SM BKN012 TEMPO 3108/3112 2SM BR FM311300 35005KT P6SM FEW040 FM311900 VRB05KT P6SM FEW040

KTTN  (14.8 nm SW)   (most recent observation was updatred at 31:08 UTC)
AMD 310819Z 3108/0106 VRB02KT P6SM BKN012 TEMPO 3108/3112 2SM BR BKN008 FM311300 36005KT P6SM FEW040 FM311900 VRB04KT P6SM FEW040


KPHL  (16.5 nm NE)   (most recent observation was updatred at 31:09 UTC)
AMD 310905Z 3109/0112 24005KT P6SM BKN015 TEMPO 3109/3112 4SM BR FM311200 34005KT P6SM FEW040 FM311900 VRB05KT P6SM FEW040
GlobalAir.com is loading additional information.
 Current Weather at PNE
73.0 F° (22.8 C°)

West winds at 3.5 mph
Pressure:
29.95 in
Humidity:
84%
Wind:
West at 3.5 mph
Dew Point:
68.0 F° (20.0 C°)
Visibility:
10.00 mi
PNE NOAA Radar




Find All Airport Services Find A Hotel Find A Rental Car Find A Golf Course Find A Restaurant $100 Hamburger



Airport Weather Forecast for KPNE

Translated METAR for KPNE (0954 UTC)
METAR:
KPNE 310954Z AUTO 00000KT 10SM OVC017 22/19 A2996 RMK AO2 SLP142 T02220194 TSNO
Conditions at:
KPNE (Northeast Philadelphia, PA) observed 0954 UTC 31 May 2016
Temperature:
22°C (71.6°F)
Dewpoint:
19°C (66.2°F) [RH = 83.1]
Pressure:
29.96 inches Hg (1014.6 mb)
pressure at sea level is 142 in Hg
Winds:
from the N (000 degrees) at 0 mph (0 knots: 0 m/s)
Visibility:
10 mile(s)
Ceiling:
1,700 feet AGL
Clouds:
Overcast Skies at 1,700 feet AGL
Remarks:
site is un-manned
site is automated and HAS a precipitation sensor

Translated TAF for KPNE (Northeast Philadelphia, PA) (0527 UTC)
TAF text:
KPNE 310527Z 3106/0106 VRB02KT P6SM BKN012
Forecast period:
Tuesday May 31 2016 06:00 UTC - Tuesday May 31 2016 06:00 UTC
Forecast type:
FROM: standard forecast or significant change
Winds:
variable wind direction at 2.3 mph (2 knots: 1 m/s)
Visibility:
6 or more mile(s) (9.7+ km)
Ceiling:
1,200 feet AGL
Clouds:
Broken Cloud Cover at 1,200 feet AGL
Weather:
no significant weather observed at this time
TAF text:
3108/3112 2SM BR
Forecast period:
Wednesday Jun 01 2016 08:00 UTC - Wednesday Jun 01 2016 12:00 UTC
Forecast type:
FROM: standard forecast or significant change
Winds:
Visibility:
2 mile(s) (3.2 km)
Ceiling:
Clouds:
Weather:
Moderate Mist
TAF text:
FM311300 35005KT P6SM FEW040
Forecast period:
Tuesday May 31 2016 13:00 UTC - Tuesday May 31 2016 19:00 UTC
Forecast type:
FROM: standard forecast or significant change
Winds:
from the N (350 degrees) at 5.8 mph (5 knots: 2.6 m/s)
Visibility:
6 or more mile(s) (9.7+ km)
Ceiling:
at least 12,000 feet AGL
Clouds:
Few Clouds at 4,000 feet AGL
Weather:
no significant weather observed at this time
TAF text:
FM311900 VRB05KT P6SM FEW040
Forecast period:
Tuesday May 31 2016 19:00 UTC - Tuesday May 31 2016 06:00 UTC
Forecast type:
FROM: standard forecast or significant change
Winds:
variable wind direction at 5.8 mph (5 knots: 2.6 m/s)
Visibility:
6 or more mile(s) (9.7+ km)
Ceiling:
at least 12,000 feet AGL
Clouds:
Few Clouds at 4,000 feet AGL
Weather:
no significant weather observed at this time
FBO's on the Field
FBO Company Facility Photos Services Transportation Aviation Fuel Prices: Prices include tax
Catering Weather Repair Courtesy Rental Type 100LL JetA JetA+ MOGAS 8087
 
Atlantic Aviation

This FBO has not yet been rated
FS:Independent
Last Updated: May-28
Login to update fuel prices
SS:
Contact Atlantic AviationMore FBO Information
 
North Philadelphia Jet Center

Currently rated 5 by 2 people
FS:Avfuel
Last Updated: May-02
Login to update fuel prices
SS:
Contact North Philadelphia Jet CenterMore FBO Information
 
Add another FBO Facility Photos Catering Weather Repair Courtesy Rental Type 100LL JetA JetA+ MOGAS 8087
Services Transportation Aviation Fuel Prices: Prices include tax


model-print
model-print
model-print
model-print